sensor_id;sensor_type;location;lat;lon;timestamp;P1;durP1;ratioP1;P2;durP2;ratioP2
11425;SDS011;5769;47.998;7.788;2022-11-11T00:00:12;311.53;;;52.10;;
11425;SDS011;5769;47.998;7.788;2022-11-11T00:02:41;311.97;;;52.20;;
11425;SDS011;5769;47.998;7.788;2022-11-11T00:05:08;313.57;;;52.30;;
11425;SDS011;5769;47.998;7.788;2022-11-11T00:07:35;313.20;;;52.93;;
11425;SDS011;5769;47.998;7.788;2022-11-11T00:10:02;312.23;;;52.43;;
11425;SDS011;5769;47.998;7.788;2022-11-11T00:12:29;310.63;;;52.73;;
11425;SDS011;5769;47.998;7.788;2022-11-11T00:14:55;310.37;;;52.10;;
11425;SDS011;5769;47.998;7.788;2022-11-11T00:17:22;311.77;;;52.80;;
11425;SDS011;5769;47.998;7.788;2022-11-11T00:20:09;308.87;;;49.57;;
11425;SDS011;5769;47.998;7.788;2022-11-11T00:22:53;312.27;;;51.97;;
11425;SDS011;5769;47.998;7.788;2022-11-11T00:25:37;311.57;;;52.13;;
11425;SDS011;5769;47.998;7.788;2022-11-11T00:28:04;310.73;;;51.53;;
11425;SDS011;5769;47.998;7.788;2022-11-11T00:30:31;312.13;;;51.70;;
11425;SDS011;5769;47.998;7.788;2022-11-11T00:32:58;309.13;;;51.43;;
11425;SDS011;5769;47.998;7.788;2022-11-11T00:35:26;306.50;;;50.57;;
11425;SDS011;5769;47.998;7.788;2022-11-11T00:38:10;311.30;;;51.83;;
11425;SDS011;5769;47.998;7.788;2022-11-11T00:40:58;314.17;;;52.27;;
11425;SDS011;5769;47.998;7.788;2022-11-11T00:43:25;310.77;;;52.23;;
11425;SDS011;5769;47.998;7.788;2022-11-11T00:45:52;311.37;;;51.93;;
11425;SDS011;5769;47.998;7.788;2022-11-11T00:48:39;311.13;;;52.40;;
11425;SDS011;5769;47.998;7.788;2022-11-11T00:51:24;310.77;;;52.23;;
11425;SDS011;5769;47.998;7.788;2022-11-11T00:53:51;311.30;;;52.13;;
11425;SDS011;5769;47.998;7.788;2022-11-11T00:56:18;309.93;;;52.67;;
11425;SDS011;5769;47.998;7.788;2022-11-11T00:58:46;310.20;;;52.30;;
11425;SDS011;5769;47.998;7.788;2022-11-11T01:01:13;313.07;;;52.90;;
11425;SDS011;5769;47.998;7.788;2022-11-11T01:03:40;313.23;;;52.50;;
11425;SDS011;5769;47.998;7.788;2022-11-11T01:06:06;309.53;;;52.33;;
11425;SDS011;5769;47.998;7.788;2022-11-11T01:08:36;309.67;;;51.00;;
11425;SDS011;5769;47.998;7.788;2022-11-11T01:11:09;311.17;;;52.23;;
11425;SDS011;5769;47.998;7.788;2022-11-11T01:13:37;311.10;;;52.57;;
11425;SDS011;5769;47.998;7.788;2022-11-11T01:16:05;313.80;;;53.00;;
11425;SDS011;5769;47.998;7.788;2022-11-11T01:18:33;313.07;;;53.03;;
11425;SDS011;5769;47.998;7.788;2022-11-11T01:21:10;313.43;;;53.07;;
11425;SDS011;5769;47.998;7.788;2022-11-11T01:23:40;311.47;;;52.73;;
11425;SDS011;5769;47.998;7.788;2022-11-11T01:26:10;312.90;;;52.10;;
11425;SDS011;5769;47.998;7.788;2022-11-11T01:28:39;311.80;;;53.00;;
11425;SDS011;5769;47.998;7.788;2022-11-11T01:31:06;311.00;;;52.47;;
11425;SDS011;5769;47.998;7.788;2022-11-11T01:33:36;309.70;;;51.83;;
11425;SDS011;5769;47.998;7.788;2022-11-11T01:36:04;310.70;;;52.00;;
11425;SDS011;5769;47.998;7.788;2022-11-11T01:38:32;310.83;;;51.83;;
11425;SDS011;5769;47.998;7.788;2022-11-11T01:41:00;312.70;;;51.77;;
11425;SDS011;5769;47.998;7.788;2022-11-11T01:43:49;310.17;;;50.70;;
11425;SDS011;5769;47.998;7.788;2022-11-11T01:46:17;309.77;;;51.40;;
11425;SDS011;5769;47.998;7.788;2022-11-11T01:48:52;311.27;;;51.67;;
11425;SDS011;5769;47.998;7.788;2022-11-11T01:51:39;312.03;;;52.17;;
11425;SDS011;5769;47.998;7.788;2022-11-11T01:54:10;309.47;;;51.50;;
11425;SDS011;5769;47.998;7.788;2022-11-11T01:56:42;310.50;;;51.57;;
11425;SDS011;5769;47.998;7.788;2022-11-11T01:59:12;311.07;;;51.80;;
11425;SDS011;5769;47.998;7.788;2022-11-11T02:01:41;310.23;;;51.90;;
11425;SDS011;5769;47.998;7.788;2022-11-11T02:04:10;309.97;;;51.27;;
11425;SDS011;5769;47.998;7.788;2022-11-11T02:06:54;307.90;;;50.43;;
11425;SDS011;5769;47.998;7.788;2022-11-11T02:09:23;307.77;;;51.70;;
11425;SDS011;5769;47.998;7.788;2022-11-11T02:11:53;311.83;;;51.97;;
11425;SDS011;5769;47.998;7.788;2022-11-11T02:14:39;310.40;;;51.90;;
11425;SDS011;5769;47.998;7.788;2022-11-11T02:17:10;312.83;;;52.50;;
11425;SDS011;5769;47.998;7.788;2022-11-11T02:19:42;311.37;;;52.23;;
11425;SDS011;5769;47.998;7.788;2022-11-11T02:22:13;314.37;;;52.23;;
11425;SDS011;5769;47.998;7.788;2022-11-11T02:24:46;311.07;;;52.17;;
11425;SDS011;5769;47.998;7.788;2022-11-11T02:27:14;312.37;;;52.57;;
11425;SDS011;5769;47.998;7.788;2022-11-11T02:29:42;312.07;;;52.77;;
11425;SDS011;5769;47.998;7.788;2022-11-11T02:32:13;312.97;;;52.70;;
11425;SDS011;5769;47.998;7.788;2022-11-11T02:34:40;310.53;;;52.27;;
11425;SDS011;5769;47.998;7.788;2022-11-11T02:37:07;312.57;;;53.00;;
11425;SDS011;5769;47.998;7.788;2022-11-11T02:39:36;310.83;;;53.07;;
11425;SDS011;5769;47.998;7.788;2022-11-11T02:42:08;311.73;;;53.07;;
11425;SDS011;5769;47.998;7.788;2022-11-11T02:44:38;311.97;;;53.33;;
11425;SDS011;5769;47.998;7.788;2022-11-11T02:47:04;310.10;;;52.17;;
11425;SDS011;5769;47.998;7.788;2022-11-11T02:49:31;312.77;;;52.90;;
11425;SDS011;5769;47.998;7.788;2022-11-11T02:51:58;309.97;;;52.50;;
11425;SDS011;5769;47.998;7.788;2022-11-11T02:54:25;312.07;;;52.07;;
11425;SDS011;5769;47.998;7.788;2022-11-11T02:56:51;310.23;;;52.63;;
11425;SDS011;5769;47.998;7.788;2022-11-11T02:59:35;309.90;;;52.00;;
11425;SDS011;5769;47.998;7.788;2022-11-11T03:02:02;310.10;;;51.87;;
11425;SDS011;5769;47.998;7.788;2022-11-11T03:04:30;310.07;;;52.10;;
11425;SDS011;5769;47.998;7.788;2022-11-11T03:06:57;310.47;;;51.93;;
11425;SDS011;5769;47.998;7.788;2022-11-11T03:09:23;311.73;;;52.87;;
11425;SDS011;5769;47.998;7.788;2022-11-11T03:11:50;310.33;;;52.90;;
11425;SDS011;5769;47.998;7.788;2022-11-11T03:14:17;310.53;;;52.30;;
11425;SDS011;5769;47.998;7.788;2022-11-11T03:16:46;312.57;;;52.53;;
11425;SDS011;5769;47.998;7.788;2022-11-11T03:19:30;314.13;;;52.13;;
11425;SDS011;5769;47.998;7.788;2022-11-11T03:21:57;312.70;;;53.33;;
11425;SDS011;5769;47.998;7.788;2022-11-11T03:24:24;309.80;;;52.80;;
11425;SDS011;5769;47.998;7.788;2022-11-11T03:27:11;312.87;;;51.60;;
11425;SDS011;5769;47.998;7.788;2022-11-11T03:29:38;311.50;;;52.63;;
11425;SDS011;5769;47.998;7.788;2022-11-11T03:32:06;310.83;;;52.57;;
11425;SDS011;5769;47.998;7.788;2022-11-11T03:34:33;312.17;;;53.07;;
11425;SDS011;5769;47.998;7.788;2022-11-11T03:37:00;310.20;;;52.17;;
11425;SDS011;5769;47.998;7.788;2022-11-11T03:39:45;312.23;;;52.07;;
11425;SDS011;5769;47.998;7.788;2022-11-11T03:42:11;310.80;;;52.57;;
11425;SDS011;5769;47.998;7.788;2022-11-11T03:44:38;309.93;;;52.00;;
11425;SDS011;5769;47.998;7.788;2022-11-11T03:47:06;310.07;;;52.13;;
11425;SDS011;5769;47.998;7.788;2022-11-11T03:49:33;312.73;;;53.20;;
11425;SDS011;5769;47.998;7.788;2022-11-11T03:51:59;311.10;;;52.43;;
11425;SDS011;5769;47.998;7.788;2022-11-11T03:54:26;310.07;;;52.17;;
11425;SDS011;5769;47.998;7.788;2022-11-11T03:56:53;310.30;;;51.97;;
11425;SDS011;5769;47.998;7.788;2022-11-11T03:59:41;309.57;;;51.03;;
11425;SDS011;5769;47.998;7.788;2022-11-11T04:02:09;310.60;;;51.57;;
11425;SDS011;5769;47.998;7.788;2022-11-11T04:04:55;309.47;;;51.90;;
11425;SDS011;5769;47.998;7.788;2022-11-11T04:07:39;309.70;;;51.40;;
11425;SDS011;5769;47.998;7.788;2022-11-11T04:10:23;309.13;;;50.97;;
11425;SDS011;5769;47.998;7.788;2022-11-11T04:12:50;310.60;;;51.13;;
11425;SDS011;5769;47.998;7.788;2022-11-11T04:15:35;310.10;;;51.63;;
11425;SDS011;5769;47.998;7.788;2022-11-11T04:18:20;309.83;;;51.73;;
11425;SDS011;5769;47.998;7.788;2022-11-11T04:21:07;310.80;;;51.60;;
11425;SDS011;5769;47.998;7.788;2022-11-11T04:23:51;310.83;;;51.53;;
11425;SDS011;5769;47.998;7.788;2022-11-11T04:26:18;311.23;;;52.30;;
11425;SDS011;5769;47.998;7.788;2022-11-11T04:28:44;310.23;;;52.10;;
11425;SDS011;5769;47.998;7.788;2022-11-11T04:31:28;309.20;;;51.33;;
11425;SDS011;5769;47.998;7.788;2022-11-11T04:33:56;309.13;;;51.73;;
11425;SDS011;5769;47.998;7.788;2022-11-11T04:36:22;310.30;;;52.23;;
11425;SDS011;5769;47.998;7.788;2022-11-11T04:38:48;311.00;;;52.00;;
11425;SDS011;5769;47.998;7.788;2022-11-11T04:41:33;309.43;;;51.33;;
11425;SDS011;5769;47.998;7.788;2022-11-11T04:43:59;310.33;;;51.77;;
11425;SDS011;5769;47.998;7.788;2022-11-11T04:46:43;310.40;;;51.60;;
11425;SDS011;5769;47.998;7.788;2022-11-11T04:49:12;310.77;;;51.90;;
11425;SDS011;5769;47.998;7.788;2022-11-11T04:51:38;311.70;;;51.57;;
11425;SDS011;5769;47.998;7.788;2022-11-11T04:54:19;308.80;;;51.37;;
11425;SDS011;5769;47.998;7.788;2022-11-11T04:56:45;309.47;;;51.30;;
11425;SDS011;5769;47.998;7.788;2022-11-11T04:59:11;308.90;;;51.17;;
11425;SDS011;5769;47.998;7.788;2022-11-11T05:01:41;307.57;;;51.00;;
11425;SDS011;5769;47.998;7.788;2022-11-11T05:04:27;311.17;;;51.47;;
11425;SDS011;5769;47.998;7.788;2022-11-11T05:06:53;308.77;;;50.87;;
11425;SDS011;5769;47.998;7.788;2022-11-11T05:09:38;310.57;;;50.77;;
11425;SDS011;5769;47.998;7.788;2022-11-11T05:12:04;309.47;;;51.10;;
11425;SDS011;5769;47.998;7.788;2022-11-11T05:14:31;311.10;;;50.87;;
11425;SDS011;5769;47.998;7.788;2022-11-11T05:17:15;308.77;;;50.43;;
11425;SDS011;5769;47.998;7.788;2022-11-11T05:20:01;308.87;;;51.07;;
11425;SDS011;5769;47.998;7.788;2022-11-11T05:22:45;308.40;;;50.83;;
11425;SDS011;5769;47.998;7.788;2022-11-11T05:25:12;307.67;;;50.30;;
11425;SDS011;5769;47.998;7.788;2022-11-11T05:27:50;306.67;;;50.03;;
11425;SDS011;5769;47.998;7.788;2022-11-11T05:30:18;308.93;;;49.63;;
11425;SDS011;5769;47.998;7.788;2022-11-11T05:32:47;306.67;;;48.33;;
11425;SDS011;5769;47.998;7.788;2022-11-11T05:35:15;306.23;;;48.43;;
11425;SDS011;5769;47.998;7.788;2022-11-11T05:37:43;308.53;;;51.37;;
11425;SDS011;5769;47.998;7.788;2022-11-11T05:40:31;307.40;;;50.10;;
11425;SDS011;5769;47.998;7.788;2022-11-11T05:42:58;309.60;;;50.77;;
11425;SDS011;5769;47.998;7.788;2022-11-11T05:45:25;311.20;;;51.57;;
11425;SDS011;5769;47.998;7.788;2022-11-11T05:47:51;307.90;;;51.07;;
11425;SDS011;5769;47.998;7.788;2022-11-11T05:50:19;309.57;;;50.97;;
11425;SDS011;5769;47.998;7.788;2022-11-11T05:52:47;306.70;;;50.47;;
11425;SDS011;5769;47.998;7.788;2022-11-11T05:55:14;308.53;;;50.87;;
11425;SDS011;5769;47.998;7.788;2022-11-11T05:57:41;310.33;;;50.30;;
11425;SDS011;5769;47.998;7.788;2022-11-11T06:00:08;307.63;;;50.03;;
11425;SDS011;5769;47.998;7.788;2022-11-11T06:02:35;308.50;;;50.57;;
11425;SDS011;5769;47.998;7.788;2022-11-11T06:05:03;307.30;;;50.20;;
11425;SDS011;5769;47.998;7.788;2022-11-11T06:07:33;308.83;;;50.80;;
11425;SDS011;5769;47.998;7.788;2022-11-11T06:10:03;307.50;;;49.67;;
11425;SDS011;5769;47.998;7.788;2022-11-11T06:12:48;307.50;;;49.60;;
11425;SDS011;5769;47.998;7.788;2022-11-11T06:15:31;304.70;;;47.63;;
11425;SDS011;5769;47.998;7.788;2022-11-11T06:17:59;305.97;;;47.53;;
11425;SDS011;5769;47.998;7.788;2022-11-11T06:20:26;304.87;;;47.83;;
11425;SDS011;5769;47.998;7.788;2022-11-11T06:22:54;304.60;;;46.90;;
11425;SDS011;5769;47.998;7.788;2022-11-11T06:25:21;309.27;;;50.30;;
11425;SDS011;5769;47.998;7.788;2022-11-11T06:28:06;309.20;;;51.23;;
11425;SDS011;5769;47.998;7.788;2022-11-11T06:30:33;308.20;;;51.03;;
11425;SDS011;5769;47.998;7.788;2022-11-11T06:33:00;309.23;;;50.80;;
11425;SDS011;5769;47.998;7.788;2022-11-11T06:35:27;309.90;;;51.03;;
11425;SDS011;5769;47.998;7.788;2022-11-11T06:37:55;309.40;;;51.50;;
11425;SDS011;5769;47.998;7.788;2022-11-11T06:40:21;308.23;;;51.20;;
11425;SDS011;5769;47.998;7.788;2022-11-11T06:42:48;312.23;;;51.33;;
11425;SDS011;5769;47.998;7.788;2022-11-11T06:45:15;309.10;;;51.37;;
11425;SDS011;5769;47.998;7.788;2022-11-11T06:47:42;310.97;;;51.80;;
11425;SDS011;5769;47.998;7.788;2022-11-11T06:50:09;311.17;;;51.80;;
11425;SDS011;5769;47.998;7.788;2022-11-11T06:52:36;310.73;;;52.10;;
11425;SDS011;5769;47.998;7.788;2022-11-11T06:55:04;311.33;;;52.40;;
11425;SDS011;5769;47.998;7.788;2022-11-11T06:57:31;310.23;;;51.80;;
11425;SDS011;5769;47.998;7.788;2022-11-11T06:59:58;309.13;;;51.53;;
11425;SDS011;5769;47.998;7.788;2022-11-11T07:02:25;308.63;;;51.90;;
11425;SDS011;5769;47.998;7.788;2022-11-11T07:04:51;310.17;;;52.03;;
11425;SDS011;5769;47.998;7.788;2022-11-11T07:07:18;310.73;;;52.17;;
11425;SDS011;5769;47.998;7.788;2022-11-11T07:09:45;309.93;;;51.50;;
11425;SDS011;5769;47.998;7.788;2022-11-11T07:12:14;312.10;;;52.20;;
11425;SDS011;5769;47.998;7.788;2022-11-11T07:14:40;309.77;;;51.83;;
11425;SDS011;5769;47.998;7.788;2022-11-11T07:17:07;309.77;;;51.90;;
11425;SDS011;5769;47.998;7.788;2022-11-11T07:19:34;309.53;;;51.63;;
11425;SDS011;5769;47.998;7.788;2022-11-11T07:22:01;308.97;;;52.07;;
11425;SDS011;5769;47.998;7.788;2022-11-11T07:24:27;310.50;;;51.47;;
11425;SDS011;5769;47.998;7.788;2022-11-11T07:26:54;308.33;;;51.23;;
11425;SDS011;5769;47.998;7.788;2022-11-11T07:29:22;311.20;;;52.37;;
11425;SDS011;5769;47.998;7.788;2022-11-11T07:31:49;309.13;;;51.27;;
11425;SDS011;5769;47.998;7.788;2022-11-11T07:34:16;309.17;;;51.27;;
11425;SDS011;5769;47.998;7.788;2022-11-11T07:36:42;310.23;;;52.00;;
11425;SDS011;5769;47.998;7.788;2022-11-11T07:39:09;309.30;;;51.63;;
11425;SDS011;5769;47.998;7.788;2022-11-11T07:41:36;309.43;;;51.33;;
11425;SDS011;5769;47.998;7.788;2022-11-11T07:44:03;309.20;;;51.60;;
11425;SDS011;5769;47.998;7.788;2022-11-11T07:46:31;307.47;;;51.57;;
11425;SDS011;5769;47.998;7.788;2022-11-11T07:48:57;307.50;;;51.30;;
11425;SDS011;5769;47.998;7.788;2022-11-11T07:51:24;309.27;;;51.70;;
11425;SDS011;5769;47.998;7.788;2022-11-11T07:53:51;309.50;;;51.07;;
11425;SDS011;5769;47.998;7.788;2022-11-11T07:56:17;309.53;;;51.53;;
11425;SDS011;5769;47.998;7.788;2022-11-11T07:58:44;308.77;;;51.97;;
11425;SDS011;5769;47.998;7.788;2022-11-11T08:01:11;309.63;;;51.40;;
11425;SDS011;5769;47.998;7.788;2022-11-11T08:03:39;308.43;;;51.27;;
11425;SDS011;5769;47.998;7.788;2022-11-11T08:06:13;309.13;;;51.40;;
11425;SDS011;5769;47.998;7.788;2022-11-11T08:08:41;308.37;;;50.83;;
11425;SDS011;5769;47.998;7.788;2022-11-11T08:11:07;308.93;;;51.60;;
11425;SDS011;5769;47.998;7.788;2022-11-11T08:13:34;308.63;;;51.17;;
11425;SDS011;5769;47.998;7.788;2022-11-11T08:16:06;309.43;;;51.07;;
11425;SDS011;5769;47.998;7.788;2022-11-11T08:18:33;308.17;;;51.07;;
11425;SDS011;5769;47.998;7.788;2022-11-11T08:21:01;308.03;;;51.13;;
11425;SDS011;5769;47.998;7.788;2022-11-11T08:23:28;308.87;;;51.40;;
11425;SDS011;5769;47.998;7.788;2022-11-11T08:25:58;308.53;;;50.53;;
11425;SDS011;5769;47.998;7.788;2022-11-11T08:28:25;309.80;;;50.70;;
11425;SDS011;5769;47.998;7.788;2022-11-11T08:30:53;309.63;;;51.83;;
11425;SDS011;5769;47.998;7.788;2022-11-11T08:33:20;307.67;;;51.27;;
11425;SDS011;5769;47.998;7.788;2022-11-11T08:35:47;309.47;;;50.73;;
11425;SDS011;5769;47.998;7.788;2022-11-11T08:38:15;308.30;;;50.90;;
11425;SDS011;5769;47.998;7.788;2022-11-11T08:40:42;310.03;;;51.13;;
11425;SDS011;5769;47.998;7.788;2022-11-11T08:43:09;309.43;;;50.97;;
11425;SDS011;5769;47.998;7.788;2022-11-11T08:45:35;309.60;;;50.77;;
11425;SDS011;5769;47.998;7.788;2022-11-11T08:48:02;308.77;;;50.77;;
11425;SDS011;5769;47.998;7.788;2022-11-11T08:50:30;308.87;;;51.07;;
11425;SDS011;5769;47.998;7.788;2022-11-11T08:52:57;308.50;;;50.83;;
11425;SDS011;5769;47.998;7.788;2022-11-11T08:55:25;308.57;;;51.10;;
11425;SDS011;5769;47.998;7.788;2022-11-11T08:57:56;310.60;;;51.07;;
11425;SDS011;5769;47.998;7.788;2022-11-11T09:00:23;309.27;;;50.43;;
11425;SDS011;5769;47.998;7.788;2022-11-11T09:02:50;307.63;;;50.30;;
11425;SDS011;5769;47.998;7.788;2022-11-11T09:05:17;307.77;;;50.53;;
11425;SDS011;5769;47.998;7.788;2022-11-11T09:07:44;308.37;;;50.10;;
11425;SDS011;5769;47.998;7.788;2022-11-11T09:10:11;309.77;;;50.73;;
11425;SDS011;5769;47.998;7.788;2022-11-11T09:12:39;308.93;;;50.70;;
11425;SDS011;5769;47.998;7.788;2022-11-11T09:15:06;308.83;;;50.40;;
11425;SDS011;5769;47.998;7.788;2022-11-11T09:17:33;308.43;;;50.80;;
11425;SDS011;5769;47.998;7.788;2022-11-11T09:19:59;309.03;;;50.37;;
11425;SDS011;5769;47.998;7.788;2022-11-11T09:22:26;308.17;;;50.83;;
11425;SDS011;5769;47.998;7.788;2022-11-11T09:24:53;307.27;;;50.50;;
11425;SDS011;5769;47.998;7.788;2022-11-11T09:27:20;308.47;;;50.37;;
11425;SDS011;5769;47.998;7.788;2022-11-11T09:29:48;307.13;;;50.43;;
11425;SDS011;5769;47.998;7.788;2022-11-11T09:32:15;308.20;;;50.27;;
11425;SDS011;5769;47.998;7.788;2022-11-11T09:34:42;307.57;;;50.37;;
11425;SDS011;5769;47.998;7.788;2022-11-11T09:37:08;309.33;;;51.00;;
11425;SDS011;5769;47.998;7.788;2022-11-11T09:39:35;307.27;;;51.00;;
11425;SDS011;5769;47.998;7.788;2022-11-11T09:42:04;308.73;;;50.77;;
11425;SDS011;5769;47.998;7.788;2022-11-11T09:45:01;308.37;;;50.33;;
11425;SDS011;5769;47.998;7.788;2022-11-11T09:47:34;309.93;;;50.27;;
11425;SDS011;5769;47.998;7.788;2022-11-11T09:50:08;308.57;;;50.40;;
11425;SDS011;5769;47.998;7.788;2022-11-11T09:52:39;308.63;;;50.90;;
11425;SDS011;5769;47.998;7.788;2022-11-11T09:55:13;308.80;;;49.87;;
11425;SDS011;5769;47.998;7.788;2022-11-11T09:57:43;307.57;;;49.90;;
11425;SDS011;5769;47.998;7.788;2022-11-11T10:00:16;308.30;;;49.67;;
11425;SDS011;5769;47.998;7.788;2022-11-11T10:02:48;306.67;;;49.93;;
11425;SDS011;5769;47.998;7.788;2022-11-11T10:05:18;307.97;;;49.27;;
11425;SDS011;5769;47.998;7.788;2022-11-11T10:07:48;306.60;;;49.60;;
11425;SDS011;5769;47.998;7.788;2022-11-11T10:10:22;307.07;;;49.33;;
11425;SDS011;5769;47.998;7.788;2022-11-11T10:12:56;308.73;;;49.83;;
11425;SDS011;5769;47.998;7.788;2022-11-11T10:15:25;304.90;;;49.40;;
11425;SDS011;5769;47.998;7.788;2022-11-11T10:18:06;308.37;;;49.83;;
11425;SDS011;5769;47.998;7.788;2022-11-11T10:20:40;307.53;;;49.63;;
11425;SDS011;5769;47.998;7.788;2022-11-11T10:23:10;306.70;;;49.83;;
11425;SDS011;5769;47.998;7.788;2022-11-11T10:25:40;306.80;;;49.13;;
11425;SDS011;5769;47.998;7.788;2022-11-11T10:28:18;307.73;;;49.63;;
11425;SDS011;5769;47.998;7.788;2022-11-11T10:30:47;307.73;;;49.30;;
11425;SDS011;5769;47.998;7.788;2022-11-11T10:33:17;309.00;;;49.40;;
11425;SDS011;5769;47.998;7.788;2022-11-11T10:35:47;307.97;;;49.77;;
11425;SDS011;5769;47.998;7.788;2022-11-11T10:38:25;308.20;;;49.17;;
11425;SDS011;5769;47.998;7.788;2022-11-11T10:41:00;306.80;;;49.27;;
11425;SDS011;5769;47.998;7.788;2022-11-11T10:43:33;307.17;;;49.60;;
11425;SDS011;5769;47.998;7.788;2022-11-11T10:46:02;307.27;;;49.27;;
11425;SDS011;5769;47.998;7.788;2022-11-11T10:48:35;309.10;;;49.70;;
11425;SDS011;5769;47.998;7.788;2022-11-11T10:51:09;306.60;;;49.17;;
11425;SDS011;5769;47.998;7.788;2022-11-11T10:53:38;306.83;;;48.90;;
11425;SDS011;5769;47.998;7.788;2022-11-11T10:56:14;307.77;;;49.33;;
11425;SDS011;5769;47.998;7.788;2022-11-11T10:58:46;307.03;;;49.07;;
11425;SDS011;5769;47.998;7.788;2022-11-11T11:01:19;308.40;;;49.60;;
11425;SDS011;5769;47.998;7.788;2022-11-11T11:03:52;306.53;;;48.83;;
11425;SDS011;5769;47.998;7.788;2022-11-11T11:06:24;306.27;;;48.90;;
11425;SDS011;5769;47.998;7.788;2022-11-11T11:08:54;307.77;;;48.80;;
11425;SDS011;5769;47.998;7.788;2022-11-11T11:11:28;306.47;;;49.10;;
11425;SDS011;5769;47.998;7.788;2022-11-11T11:13:59;306.83;;;49.23;;
11425;SDS011;5769;47.998;7.788;2022-11-11T11:16:31;306.47;;;48.80;;
11425;SDS011;5769;47.998;7.788;2022-11-11T11:19:13;306.27;;;48.50;;
11425;SDS011;5769;47.998;7.788;2022-11-11T11:21:51;307.27;;;48.63;;
11425;SDS011;5769;47.998;7.788;2022-11-11T11:24:20;307.43;;;49.23;;
11425;SDS011;5769;47.998;7.788;2022-11-11T11:26:49;306.77;;;49.13;;
11425;SDS011;5769;47.998;7.788;2022-11-11T11:29:23;306.93;;;48.93;;
11425;SDS011;5769;47.998;7.788;2022-11-11T11:31:53;307.77;;;49.57;;
11425;SDS011;5769;47.998;7.788;2022-11-11T11:34:20;306.97;;;49.43;;
11425;SDS011;5769;47.998;7.788;2022-11-11T11:36:59;307.50;;;49.23;;
11425;SDS011;5769;47.998;7.788;2022-11-11T11:39:33;307.07;;;48.70;;
11425;SDS011;5769;47.998;7.788;2022-11-11T11:42:01;306.43;;;49.40;;
11425;SDS011;5769;47.998;7.788;2022-11-11T11:44:28;308.03;;;49.07;;
11425;SDS011;5769;47.998;7.788;2022-11-11T11:47:01;308.20;;;49.50;;
11425;SDS011;5769;47.998;7.788;2022-11-11T11:49:41;307.80;;;48.77;;
11425;SDS011;5769;47.998;7.788;2022-11-11T11:52:20;306.97;;;48.30;;
11425;SDS011;5769;47.998;7.788;2022-11-11T11:54:54;307.00;;;48.77;;
11425;SDS011;5769;47.998;7.788;2022-11-11T11:57:30;307.37;;;48.60;;
11425;SDS011;5769;47.998;7.788;2022-11-11T12:00:12;307.00;;;48.40;;
11425;SDS011;5769;47.998;7.788;2022-11-11T12:02:53;306.67;;;48.40;;
11425;SDS011;5769;47.998;7.788;2022-11-11T12:05:34;306.23;;;48.30;;
11425;SDS011;5769;47.998;7.788;2022-11-11T12:08:09;306.13;;;47.87;;
11425;SDS011;5769;47.998;7.788;2022-11-11T12:10:52;308.03;;;47.90;;
11425;SDS011;5769;47.998;7.788;2022-11-11T12:13:30;307.07;;;48.53;;
11425;SDS011;5769;47.998;7.788;2022-11-11T12:16:08;308.30;;;48.50;;
11425;SDS011;5769;47.998;7.788;2022-11-11T12:18:52;307.43;;;48.80;;
11425;SDS011;5769;47.998;7.788;2022-11-11T12:21:33;305.73;;;48.67;;
11425;SDS011;5769;47.998;7.788;2022-11-11T12:24:07;306.07;;;48.10;;
11425;SDS011;5769;47.998;7.788;2022-11-11T12:26:43;306.60;;;48.23;;
11425;SDS011;5769;47.998;7.788;2022-11-11T12:29:20;305.87;;;47.87;;
11425;SDS011;5769;47.998;7.788;2022-11-11T12:31:59;305.00;;;47.80;;
11425;SDS011;5769;47.998;7.788;2022-11-11T12:34:58;305.20;;;47.57;;
11425;SDS011;5769;47.998;7.788;2022-11-11T12:37:45;305.30;;;47.73;;
11425;SDS011;5769;47.998;7.788;2022-11-11T12:40:21;305.87;;;47.53;;
11425;SDS011;5769;47.998;7.788;2022-11-11T12:42:55;306.77;;;48.10;;
11425;SDS011;5769;47.998;7.788;2022-11-11T12:45:30;307.03;;;47.67;;
11425;SDS011;5769;47.998;7.788;2022-11-11T12:48:04;306.20;;;47.80;;
11425;SDS011;5769;47.998;7.788;2022-11-11T12:50:42;305.53;;;47.50;;
11425;SDS011;5769;47.998;7.788;2022-11-11T12:53:19;305.43;;;47.67;;
11425;SDS011;5769;47.998;7.788;2022-11-11T12:55:59;305.43;;;47.97;;
11425;SDS011;5769;47.998;7.788;2022-11-11T12:58:34;305.40;;;47.80;;
11425;SDS011;5769;47.998;7.788;2022-11-11T13:01:12;305.93;;;47.97;;
11425;SDS011;5769;47.998;7.788;2022-11-11T13:03:48;305.00;;;47.43;;
11425;SDS011;5769;47.998;7.788;2022-11-11T13:06:30;307.07;;;48.27;;
11425;SDS011;5769;47.998;7.788;2022-11-11T13:09:27;305.47;;;47.17;;
11425;SDS011;5769;47.998;7.788;2022-11-11T13:12:05;308.07;;;47.67;;
11425;SDS011;5769;47.998;7.788;2022-11-11T13:17:27;308.30;;;47.60;;
11425;SDS011;5769;47.998;7.788;2022-11-11T13:19:56;304.57;;;47.40;;
11425;SDS011;5769;47.998;7.788;2022-11-11T13:22:29;305.30;;;47.53;;
11425;SDS011;5769;47.998;7.788;2022-11-11T13:24:57;305.07;;;47.77;;
11425;SDS011;5769;47.998;7.788;2022-11-11T13:27:30;304.67;;;47.37;;
11425;SDS011;5769;47.998;7.788;2022-11-11T13:30:16;305.27;;;47.50;;
11425;SDS011;5769;47.998;7.788;2022-11-11T13:33:04;304.57;;;46.73;;
11425;SDS011;5769;47.998;7.788;2022-11-11T13:35:37;305.70;;;46.90;;
11425;SDS011;5769;47.998;7.788;2022-11-11T13:38:09;305.37;;;46.60;;
11425;SDS011;5769;47.998;7.788;2022-11-11T13:40:50;304.53;;;46.80;;
11425;SDS011;5769;47.998;7.788;2022-11-11T13:43:24;304.93;;;46.93;;
11425;SDS011;5769;47.998;7.788;2022-11-11T13:45:57;305.97;;;47.03;;
11425;SDS011;5769;47.998;7.788;2022-11-11T13:48:28;305.07;;;47.13;;
11425;SDS011;5769;47.998;7.788;2022-11-11T13:51:10;305.60;;;46.87;;
11425;SDS011;5769;47.998;7.788;2022-11-11T13:53:51;304.70;;;46.77;;
11425;SDS011;5769;47.998;7.788;2022-11-11T13:56:21;305.53;;;46.77;;
11425;SDS011;5769;47.998;7.788;2022-11-11T13:58:51;304.60;;;46.80;;
11425;SDS011;5769;47.998;7.788;2022-11-11T14:01:23;304.80;;;47.03;;
11425;SDS011;5769;47.998;7.788;2022-11-11T14:03:58;304.87;;;46.80;;
11425;SDS011;5769;47.998;7.788;2022-11-11T14:06:35;305.77;;;46.70;;
11425;SDS011;5769;47.998;7.788;2022-11-11T14:15:08;306.10;;;46.70;;
11425;SDS011;5769;47.998;7.788;2022-11-11T14:18:07;304.57;;;46.27;;
11425;SDS011;5769;47.998;7.788;2022-11-11T14:20:39;302.83;;;46.33;;
11425;SDS011;5769;47.998;7.788;2022-11-11T14:26:20;304.27;;;45.97;;
11425;SDS011;5769;47.998;7.788;2022-11-11T14:28:55;303.17;;;45.67;;
11425;SDS011;5769;47.998;7.788;2022-11-11T14:31:40;304.10;;;45.80;;
11425;SDS011;5769;47.998;7.788;2022-11-11T14:37:38;303.80;;;45.70;;
11425;SDS011;5769;47.998;7.788;2022-11-11T14:40:23;303.40;;;45.90;;
11425;SDS011;5769;47.998;7.788;2022-11-11T14:42:53;305.53;;;45.83;;
11425;SDS011;5769;47.998;7.788;2022-11-11T14:51:47;304.43;;;45.80;;
11425;SDS011;5769;47.998;7.788;2022-11-11T14:54:20;303.40;;;46.07;;
11425;SDS011;5769;47.998;7.788;2022-11-11T14:57:20;304.27;;;46.13;;
11425;SDS011;5769;47.998;7.788;2022-11-11T14:59:51;304.33;;;46.23;;
11425;SDS011;5769;47.998;7.788;2022-11-11T15:02:27;304.53;;;46.27;;
11425;SDS011;5769;47.998;7.788;2022-11-11T15:04:59;304.33;;;45.83;;
11425;SDS011;5769;47.998;7.788;2022-11-11T15:07:42;306.40;;;46.03;;
11425;SDS011;5769;47.998;7.788;2022-11-11T15:10:24;303.97;;;45.50;;